Al Udeid, Qatar

11:21 PM AST on August 04, 2015 (GMT +0300)
Al Waab | | Change Station
CLOSE
Current Station
Personal Weather Station
Location: Doha, DOHA
Elevation: 69 ft
Nearby Weather Stations

Elev 69 ft 25.26 °N, 51.46 °E | Updated 5 minutes ago

Clear
Clear
95.0 °F
Feels Like 110 °F
N
3.1
Wind Variable Wind from East
Gusts 3.8 mph

Today
High -- | Low -- °F
--% Chance of Precip.
Yesterday
High -- | Low -- °F
Precip. -- in
5:03 AM 6:18 PM
Waning Gibbous, 75% visible
Pressure 29.53 in
Visibility -9999.0 miles
Clouds
Heat Index 110 °F
Dew Point 77 °F
Humidity 56%
Rainfall in
Snow Depth Not available.
UV Not available.
Pollen Not available.
Air Quality Not available.
Flu Activity Not available.
METAR OTBD 042000Z 01005KT CAVOK 34/28 Q1000 NOSIG

More Conditions Fewer Conditions

Pressure 29.53 in
Visibility -9999.0 miles
Clouds
Heat Index 110 °F
Dew Point 77 °F
Humidity 56%
Rainfall in
Snow Depth Not available.
UV Not available.
Pollen Not available.
Air Quality Not available.
Flu Activity Not available.
METAR OTBD 042000Z 01005KT CAVOK 34/28 Q1000 NOSIG

More Conditions Fewer Conditions

10-Day Weather Forecast

×

Almanac

Astronomy

Aug. 04, 2015 Rise Set
Actual Time
Civil Twilight
Nautical Twilight
Astronomical Twilight
Moon
Length of Visible Light
Length of Day
Tomorrow will be .
, % of the Moon is Illuminated

Today's Extremes

Country Highs Country Lows

Community

WunderPhotos

Upload Photos

1,843,963 photos uploaded!

WunderBlogs® & News

Nearby

Air Quality

  Air Quality AQ Index Pollutant
Not available.

Snow Depth

Station Depth Elevation

Earthquake Activity

City Distance Mag. Time & Date
Minimum magnitude displayed is 2.5.

Coastal Water Temperatures

Place Temperature

Stations

Nearby Weather Stations

Station Location Temp. Windchill Dew Point Humidity Wind Precip. Elev Updated Type